createdAt,value
2022-12-25T00:00:05.880Z,-0.19
2022-12-25T00:02:33.053Z,-0.18
2022-12-25T00:05:00.280Z,-0.23
2022-12-25T00:07:27.363Z,-0.24
2022-12-25T00:09:54.393Z,-0.22
2022-12-25T00:12:22.433Z,-0.23
2022-12-25T00:14:49.463Z,-0.28
2022-12-25T00:17:16.606Z,-0.28
2022-12-25T00:19:43.573Z,-0.31
2022-12-25T00:22:10.407Z,-0.31
2022-12-25T00:24:37.630Z,-0.32
2022-12-25T00:27:04.502Z,-0.28
2022-12-25T00:29:31.569Z,-0.20
2022-12-25T00:31:58.555Z,-0.17
2022-12-25T00:34:25.612Z,-0.14
2022-12-25T00:36:52.908Z,-0.11
2022-12-25T00:39:19.904Z,-0.10
2022-12-25T00:42:05.154Z,-0.09
2022-12-25T00:44:32.247Z,-0.07
2022-12-25T00:46:59.386Z,-0.07
2022-12-25T00:49:26.486Z,-0.05
2022-12-25T00:51:53.805Z,-0.04
2022-12-25T00:54:20.938Z,-0.03
2022-12-25T00:56:48.018Z,-0.04
2022-12-25T00:59:15.046Z,-0.05
2022-12-25T01:01:42.316Z,-0.06
2022-12-25T01:04:10.856Z,-0.05
2022-12-25T01:06:38.057Z,-0.04
2022-12-25T01:09:23.815Z,-0.03
2022-12-25T01:11:50.830Z,-0.02
2022-12-25T01:14:17.786Z,-0.03
2022-12-25T01:16:44.896Z,-0.02
2022-12-25T01:19:12.085Z,-0.04
2022-12-25T01:21:39.404Z,-0.05
2022-12-25T01:24:07.040Z,-0.05
2022-12-25T01:26:33.965Z,-0.10
2022-12-25T01:29:02.685Z,-0.15
2022-12-25T01:31:29.744Z,-0.17
2022-12-25T01:33:56.924Z,-0.18
2022-12-25T01:36:25.767Z,-0.15
2022-12-25T01:38:54.252Z,-0.15
2022-12-25T01:41:23.442Z,-0.17
2022-12-25T01:44:16.493Z,-0.20
2022-12-25T01:46:44.769Z,-0.20
2022-12-25T01:49:14.444Z,-0.27
2022-12-25T01:52:02.729Z,-0.30
2022-12-25T01:54:36.506Z,-0.36
2022-12-25T01:57:07.253Z,-0.42
2022-12-25T01:59:34.515Z,-0.48
2022-12-25T02:02:03.816Z,-0.50
2022-12-25T02:04:39.701Z,-0.52
2022-12-25T02:07:32.779Z,-0.50
2022-12-25T02:09:59.810Z,-0.50
2022-12-25T02:12:29.434Z,-0.51
2022-12-25T02:15:05.013Z,-0.52
2022-12-25T02:17:51.142Z,-0.57
2022-12-25T02:20:46.412Z,-0.64
2022-12-25T02:23:23.965Z,-0.68
2022-12-25T02:25:59.969Z,-0.75
2022-12-25T02:28:35.190Z,-0.78
2022-12-25T02:31:09.310Z,-0.83
2022-12-25T02:34:07.348Z,-0.86
2022-12-25T02:37:06.725Z,-0.88
2022-12-25T02:39:59.857Z,-0.89
2022-12-25T02:43:14.442Z,-0.90
2022-12-25T02:46:00.083Z,-0.86
2022-12-25T02:48:47.907Z,-0.84
2022-12-25T02:51:35.142Z,-0.88
2022-12-25T02:54:30.709Z,-0.85
2022-12-25T02:57:17.054Z,-0.86
2022-12-25T03:00:06.540Z,-0.82
2022-12-25T03:02:52.383Z,-0.78
2022-12-25T03:05:41.129Z,-0.81
2022-12-25T03:08:11.706Z,-0.83
2022-12-25T03:10:59.510Z,-0.83
2022-12-25T03:13:34.273Z,-0.82
2022-12-25T03:16:20.182Z,-0.77
2022-12-25T03:18:47.267Z,-0.74
2022-12-25T03:21:33.108Z,-0.73
2022-12-25T03:24:20.293Z,-0.72
2022-12-25T03:26:56.527Z,-0.71
2022-12-25T03:29:48.397Z,-0.71
2022-12-25T03:32:40.385Z,-0.72
2022-12-25T03:35:23.130Z,-0.65
2022-12-25T03:38:35.175Z,-0.65
2022-12-25T03:41:40.950Z,-0.68
2022-12-25T03:45:05.007Z,-0.65
2022-12-25T03:47:59.889Z,-0.58
2022-12-25T03:51:04.988Z,-0.55
2022-12-25T03:53:57.068Z,-0.53
2022-12-25T03:56:42.365Z,-0.42
2022-12-25T03:59:27.846Z,-0.40
2022-12-25T04:02:13.560Z,-0.38
2022-12-25T04:04:59.173Z,-0.38
2022-12-25T04:07:44.919Z,-0.37
2022-12-25T04:10:30.487Z,-0.35
2022-12-25T04:13:16.248Z,-0.33
2022-12-25T04:16:01.950Z,-0.31
2022-12-25T04:18:47.717Z,-0.33
2022-12-25T04:21:33.289Z,-0.33
2022-12-25T04:24:18.973Z,-0.36
2022-12-25T04:27:04.752Z,-0.32
2022-12-25T04:29:50.349Z,-0.29
2022-12-25T04:32:36.030Z,-0.30
2022-12-25T04:35:21.969Z,-0.29
2022-12-25T04:37:48.970Z,-0.27
2022-12-25T04:40:16.228Z,-0.22
2022-12-25T04:42:43.247Z,-0.16
2022-12-25T04:45:10.747Z,-0.12
2022-12-25T04:47:37.731Z,-0.12
2022-12-25T04:50:05.088Z,-0.10
2022-12-25T04:52:36.509Z,-0.06
2022-12-25T04:55:04.737Z,-0.02
2022-12-25T04:57:31.786Z,-0.02
2022-12-25T04:59:58.845Z,0.01
2022-12-25T05:02:26.389Z,0.01
2022-12-25T05:04:53.499Z,0.04
2022-12-25T05:07:20.407Z,0.04
2022-12-25T05:09:47.387Z,0.07
2022-12-25T05:12:14.260Z,0.08
2022-12-25T05:14:41.376Z,0.07
2022-12-25T05:17:08.309Z,0.09
2022-12-25T05:19:35.337Z,0.09
2022-12-25T05:22:02.377Z,0.12
2022-12-25T05:24:29.444Z,0.14
2022-12-25T05:26:56.433Z,0.15
2022-12-25T05:29:23.410Z,0.12
2022-12-25T05:31:50.450Z,0.13
2022-12-25T05:34:17.520Z,0.13
2022-12-25T05:36:44.587Z,0.14
2022-12-25T05:39:11.648Z,0.14
2022-12-25T05:41:38.877Z,0.13
2022-12-25T05:44:05.835Z,0.12
2022-12-25T05:46:32.842Z,0.09
2022-12-25T05:48:59.807Z,0.07
2022-12-25T05:51:26.807Z,0.04
2022-12-25T05:53:53.706Z,-0.01
2022-12-25T05:56:20.737Z,-0.03
2022-12-25T05:58:47.671Z,-0.05
2022-12-25T06:01:20.937Z,-0.03
2022-12-25T06:03:48.445Z,-0.04
2022-12-25T06:06:15.632Z,-0.07
2022-12-25T06:08:43.156Z,-0.10
2022-12-25T06:11:10.770Z,-0.09
2022-12-25T06:13:37.965Z,-0.04
2022-12-25T06:16:06.490Z,-0.07
2022-12-25T06:18:46.871Z,-0.08
2022-12-25T06:21:15.030Z,-0.04
2022-12-25T06:23:42.282Z,0.00
2022-12-25T06:26:15.492Z,0.03
2022-12-25T06:28:43.232Z,0.03
2022-12-25T06:31:13.316Z,0.01
2022-12-25T06:33:40.986Z,-0.02
2022-12-25T06:36:25.271Z,-0.02
2022-12-25T06:38:52.690Z,-0.04
2022-12-25T06:41:24.019Z,-0.03
2022-12-25T06:43:53.097Z,-0.03
2022-12-25T06:46:21.569Z,-0.03
2022-12-25T06:48:50.046Z,-0.03
2022-12-25T06:51:25.245Z,0.01
2022-12-25T06:53:52.709Z,0.04
2022-12-25T06:56:24.303Z,0.04
2022-12-25T06:58:57.256Z,0.05
2022-12-25T07:01:44.691Z,0.05
2022-12-25T07:04:35.737Z,0.03
2022-12-25T07:07:08.735Z,0.04
2022-12-25T07:09:39.093Z,0.06
2022-12-25T07:12:11.689Z,0.11
2022-12-25T07:14:38.759Z,0.18
2022-12-25T07:17:05.725Z,0.23
2022-12-25T07:19:32.765Z,0.25
2022-12-25T07:21:59.665Z,0.29
2022-12-25T07:24:26.692Z,0.31
2022-12-25T07:26:53.803Z,0.31
2022-12-25T07:29:20.934Z,0.28
2022-12-25T07:31:47.948Z,0.30
2022-12-25T07:34:16.839Z,0.34
2022-12-25T07:36:43.715Z,0.41
2022-12-25T07:39:11.418Z,0.45
2022-12-25T07:41:38.390Z,0.50
2022-12-25T07:44:15.017Z,0.53
2022-12-25T07:46:42.105Z,0.56
2022-12-25T07:49:09.210Z,0.57
2022-12-25T07:51:36.137Z,0.58
2022-12-25T07:54:03.130Z,0.55
2022-12-25T07:56:30.064Z,0.60
2022-12-25T07:58:57.026Z,0.65
2022-12-25T08:01:27.042Z,0.67
2022-12-25T08:03:56.536Z,0.72
2022-12-25T08:06:26.973Z,0.76
2022-12-25T08:08:54.019Z,0.82
2022-12-25T08:11:21.007Z,0.85
2022-12-25T08:13:48.082Z,0.89
2022-12-25T08:16:15.352Z,0.89
2022-12-25T08:18:43.426Z,0.88
2022-12-25T08:21:18.354Z,0.88
2022-12-25T08:23:47.417Z,0.90
2022-12-25T08:26:16.769Z,0.92
2022-12-25T08:28:43.716Z,0.90
2022-12-25T08:31:20.233Z,0.83
2022-12-25T08:33:48.645Z,0.72
2022-12-25T08:36:16.500Z,0.61
2022-12-25T08:38:43.734Z,0.58
2022-12-25T08:41:14.706Z,0.34
2022-12-25T08:43:41.684Z,0.35
2022-12-25T08:46:08.985Z,0.30
2022-12-25T08:48:36.418Z,0.27
2022-12-25T08:51:04.268Z,0.33
2022-12-25T08:53:31.295Z,0.40
2022-12-25T08:56:05.416Z,0.50
2022-12-25T08:58:32.844Z,0.51
2022-12-25T09:01:00.225Z,0.47
2022-12-25T09:03:28.084Z,0.44
2022-12-25T09:05:55.596Z,0.55
2022-12-25T09:08:22.819Z,0.69
2022-12-25T09:10:49.986Z,0.79
2022-12-25T09:13:16.984Z,0.88
2022-12-25T09:15:43.979Z,0.92
2022-12-25T09:18:11.004Z,0.98
2022-12-25T09:20:37.944Z,1.01
2022-12-25T09:23:09.961Z,1.06
2022-12-25T09:25:40.391Z,1.07
2022-12-25T09:28:07.296Z,1.07
2022-12-25T09:30:34.556Z,1.08
2022-12-25T09:33:01.666Z,1.01
2022-12-25T09:35:28.574Z,0.92
2022-12-25T09:37:55.488Z,0.92
2022-12-25T09:40:23.400Z,1.03
2022-12-25T09:42:53.925Z,1.12
2022-12-25T09:45:39.881Z,1.21
2022-12-25T09:48:06.978Z,1.30
2022-12-25T09:50:58.669Z,1.28
2022-12-25T09:53:27.856Z,1.16
2022-12-25T09:56:18.311Z,1.17
2022-12-25T09:58:45.368Z,1.30
2022-12-25T10:01:36.885Z,1.41
2022-12-25T10:04:29.830Z,1.53
2022-12-25T10:07:15.489Z,1.55
2022-12-25T10:10:01.094Z,1.57
2022-12-25T10:12:54.172Z,1.58
2022-12-25T10:15:54.742Z,1.64
2022-12-25T10:18:36.850Z,1.65
2022-12-25T10:21:09.468Z,1.72
2022-12-25T10:24:07.786Z,1.77
2022-12-25T10:26:35.764Z,1.78
2022-12-25T10:29:13.967Z,1.78
2022-12-25T10:31:44.190Z,1.82
2022-12-25T10:34:12.580Z,1.84
2022-12-25T10:36:39.717Z,1.85
2022-12-25T10:39:06.813Z,1.84
2022-12-25T10:42:11.004Z,1.89
2022-12-25T10:44:38.016Z,1.92
2022-12-25T10:47:05.560Z,1.94
2022-12-25T10:49:35.718Z,1.95
2022-12-25T10:52:04.150Z,1.91
2022-12-25T10:54:35.808Z,1.89
2022-12-25T10:57:08.817Z,1.89
2022-12-25T10:59:48.608Z,1.86
2022-12-25T11:02:30.309Z,1.87
2022-12-25T11:05:09.933Z,1.94
2022-12-25T11:07:46.829Z,1.95
2022-12-25T11:10:23.815Z,1.97
2022-12-25T11:12:51.225Z,1.94
2022-12-25T11:15:51.051Z,1.93
2022-12-25T11:18:22.048Z,1.93
2022-12-25T11:20:49.863Z,1.93
2022-12-25T11:23:21.052Z,1.97
2022-12-25T11:26:07.654Z,1.98
2022-12-25T11:28:37.605Z,1.99
2022-12-25T11:31:13.211Z,1.99
2022-12-25T11:33:55.968Z,2.00
2022-12-25T11:36:45.596Z,2.02
2022-12-25T11:39:24.799Z,2.06
2022-12-25T11:41:58.980Z,2.03
2022-12-25T11:44:35.785Z,1.99
2022-12-25T11:47:13.111Z,2.00
2022-12-25T11:49:50.303Z,2.03
2022-12-25T11:52:19.115Z,2.01
2022-12-25T11:54:53.635Z,2.00
2022-12-25T11:57:22.821Z,1.99
2022-12-25T12:00:14.072Z,2.00
2022-12-25T12:03:01.461Z,1.96
2022-12-25T12:05:42.809Z,2.00
2022-12-25T12:08:10.944Z,2.05
2022-12-25T12:10:58.906Z,2.05
2022-12-25T12:13:29.086Z,2.08
2022-12-25T12:15:56.692Z,2.11
2022-12-25T12:18:26.685Z,2.12
2022-12-25T12:21:11.829Z,2.13
2022-12-25T12:24:01.029Z,2.12
2022-12-25T12:26:29.972Z,2.10
2022-12-25T12:29:01.345Z,2.08
2022-12-25T12:31:43.783Z,2.07
2022-12-25T12:34:34.476Z,2.06
2022-12-25T12:37:05.432Z,2.00
2022-12-25T12:39:37.772Z,1.96
2022-12-25T12:42:18.040Z,1.95
2022-12-25T12:44:45.966Z,1.95
2022-12-25T12:47:44.215Z,1.94
2022-12-25T12:50:33.415Z,1.93
2022-12-25T12:53:10.586Z,1.91
2022-12-25T12:55:37.647Z,1.90
2022-12-25T12:58:06.253Z,1.90
2022-12-25T13:00:49.289Z,1.88
2022-12-25T13:03:39.798Z,1.90
2022-12-25T13:06:16.165Z,1.87
2022-12-25T13:09:07.789Z,1.84
2022-12-25T13:11:40.613Z,1.80
2022-12-25T13:14:15.410Z,1.75
2022-12-25T13:16:44.395Z,1.69
2022-12-25T13:19:15.127Z,1.63
2022-12-25T13:21:54.307Z,1.63
2022-12-25T13:24:29.146Z,1.58
2022-12-25T13:26:56.287Z,1.56
2022-12-25T13:29:36.484Z,1.52
2022-12-25T13:32:05.876Z,1.48
2022-12-25T13:34:34.053Z,1.46
2022-12-25T13:37:07.883Z,1.44
2022-12-25T13:39:36.747Z,1.42
2022-12-25T13:42:06.083Z,1.42
2022-12-25T13:44:59.279Z,1.41
2022-12-25T13:47:31.265Z,1.38
2022-12-25T13:49:59.943Z,1.40
2022-12-25T13:52:45.621Z,1.37
2022-12-25T13:55:13.158Z,1.39
2022-12-25T13:58:01.706Z,1.40
2022-12-25T14:00:28.809Z,1.39
2022-12-25T14:02:55.987Z,1.35
2022-12-25T14:05:37.964Z,1.36
2022-12-25T14:08:24.776Z,1.35
2022-12-25T14:10:52.839Z,1.35
2022-12-25T14:13:22.820Z,1.35
2022-12-25T14:15:51.287Z,1.32
2022-12-25T14:18:19.751Z,1.32
2022-12-25T14:21:03.340Z,1.30
2022-12-25T14:23:40.731Z,1.29
2022-12-25T14:26:07.764Z,1.28
2022-12-25T14:28:36.575Z,1.27
2022-12-25T14:31:04.967Z,1.23
2022-12-25T14:33:37.058Z,1.20
2022-12-25T14:36:04.453Z,1.23
2022-12-25T14:38:35.130Z,1.23
2022-12-25T14:41:33.815Z,1.21
2022-12-25T14:44:03.896Z,1.23
2022-12-25T14:46:32.381Z,1.25
2022-12-25T14:49:04.797Z,1.26
2022-12-25T14:51:33.410Z,1.24
2022-12-25T14:54:05.686Z,1.26
2022-12-25T14:56:39.345Z,1.30
2022-12-25T14:59:10.214Z,1.29
2022-12-25T15:01:39.872Z,1.30
2022-12-25T15:04:12.651Z,1.28
2022-12-25T15:06:42.064Z,1.27
2022-12-25T15:09:16.850Z,1.24
2022-12-25T15:11:43.774Z,1.26
2022-12-25T15:14:10.646Z,1.25
2022-12-25T15:16:42.188Z,1.23
2022-12-25T15:19:10.449Z,1.24
2022-12-25T15:21:37.824Z,1.26
2022-12-25T15:24:04.913Z,1.28
2022-12-25T15:26:32.669Z,1.27
2022-12-25T15:28:59.564Z,1.28
2022-12-25T15:31:32.120Z,1.29
2022-12-25T15:34:02.215Z,1.31
2022-12-25T15:36:29.458Z,1.30
2022-12-25T15:38:56.578Z,1.28
2022-12-25T15:41:55.547Z,1.27
2022-12-25T15:44:23.263Z,1.32
2022-12-25T15:46:50.320Z,1.33
2022-12-25T15:49:17.737Z,1.35
2022-12-25T15:51:45.575Z,1.36
2022-12-25T15:54:12.764Z,1.36
2022-12-25T15:56:49.116Z,1.33
2022-12-25T15:59:17.886Z,1.34
2022-12-25T16:01:50.605Z,1.34
2022-12-25T16:04:18.338Z,1.31
2022-12-25T16:06:45.411Z,1.31
2022-12-25T16:09:13.450Z,1.33
2022-12-25T16:11:40.969Z,1.33
2022-12-25T16:14:08.389Z,1.30
2022-12-25T16:16:35.836Z,1.29
2022-12-25T16:19:03.342Z,1.27
2022-12-25T16:21:38.747Z,1.30
2022-12-25T16:24:06.159Z,1.31
2022-12-25T16:26:33.564Z,1.32
2022-12-25T16:29:06.776Z,1.34
2022-12-25T16:31:35.048Z,1.34
2022-12-25T16:34:02.461Z,1.31
2022-12-25T16:36:29.469Z,1.32
2022-12-25T16:38:56.446Z,1.33
2022-12-25T16:41:23.461Z,1.35
2022-12-25T16:43:50.393Z,1.35
2022-12-25T16:46:19.612Z,1.36
2022-12-25T16:48:46.873Z,1.36
2022-12-25T16:51:16.609Z,1.35
2022-12-25T16:53:44.611Z,1.35
2022-12-25T16:56:17.268Z,1.34
2022-12-25T16:58:46.810Z,1.35
2022-12-25T17:01:17.212Z,1.36
2022-12-25T17:03:44.663Z,1.38
2022-12-25T17:06:16.408Z,1.39
2022-12-25T17:08:44.117Z,1.41
2022-12-25T17:11:11.423Z,1.42
2022-12-25T17:13:38.456Z,1.41
2022-12-25T17:16:23.098Z,1.39
2022-12-25T17:19:16.020Z,1.37
2022-12-25T17:21:43.043Z,1.36
2022-12-25T17:24:10.016Z,1.38
2022-12-25T17:26:37.118Z,1.39
2022-12-25T17:29:04.149Z,1.40
2022-12-25T17:31:31.199Z,1.40
2022-12-25T17:34:00.307Z,1.39
2022-12-25T17:36:27.786Z,1.41
2022-12-25T17:38:54.785Z,1.41
2022-12-25T17:41:22.030Z,1.41
2022-12-25T17:43:49.042Z,1.42
2022-12-25T17:46:18.678Z,1.41
2022-12-25T17:48:46.374Z,1.42
2022-12-25T17:51:16.256Z,1.41
2022-12-25T17:53:45.570Z,1.42
2022-12-25T17:56:13.870Z,1.42
2022-12-25T17:58:40.879Z,1.40
2022-12-25T18:01:10.453Z,1.40
2022-12-25T18:03:37.717Z,1.42
2022-12-25T18:06:09.089Z,1.45
2022-12-25T18:08:39.543Z,1.46
2022-12-25T18:11:12.242Z,1.45
2022-12-25T18:13:40.767Z,1.45
2022-12-25T18:16:08.776Z,1.44
2022-12-25T18:18:35.882Z,1.43
2022-12-25T18:21:02.954Z,1.44
2022-12-25T18:23:30.082Z,1.46
2022-12-25T18:25:57.424Z,1.45
2022-12-25T18:28:24.455Z,1.45
2022-12-25T18:30:51.551Z,1.47
2022-12-25T18:33:18.489Z,1.51
2022-12-25T18:35:46.846Z,1.53
2022-12-25T18:38:14.524Z,1.50
2022-12-25T18:40:47.363Z,1.49
2022-12-25T18:43:15.617Z,1.50
2022-12-25T18:45:43.343Z,1.51
2022-12-25T18:48:11.226Z,1.53
2022-12-25T18:50:40.647Z,1.53
2022-12-25T18:53:08.039Z,1.55
2022-12-25T18:55:36.474Z,1.56
2022-12-25T18:58:04.230Z,1.60
2022-12-25T19:00:31.553Z,1.63
2022-12-25T19:02:59.540Z,1.62
2022-12-25T19:05:27.226Z,1.65
2022-12-25T19:07:54.719Z,1.66
2022-12-25T19:10:22.545Z,1.65
2022-12-25T19:12:50.832Z,1.67
2022-12-25T19:15:18.714Z,1.67
2022-12-25T19:17:46.409Z,1.69
2022-12-25T19:20:14.316Z,1.72
2022-12-25T19:22:41.985Z,1.75
2022-12-25T19:25:09.532Z,1.77
2022-12-25T19:27:36.775Z,1.79
2022-12-25T19:30:04.151Z,1.81
2022-12-25T19:32:31.342Z,1.82
2022-12-25T19:34:59.842Z,1.86
2022-12-25T19:37:28.104Z,1.86
2022-12-25T19:39:59.601Z,1.88
2022-12-25T19:42:27.344Z,1.89
2022-12-25T19:44:57.619Z,1.90
2022-12-25T19:47:25.775Z,1.91
2022-12-25T19:49:55.553Z,1.91
2022-12-25T19:52:26.667Z,1.91
2022-12-25T19:54:56.149Z,1.92
2022-12-25T19:57:24.829Z,1.93
2022-12-25T19:59:52.668Z,1.94
2022-12-25T20:02:20.227Z,1.92
2022-12-25T20:04:48.209Z,1.91
2022-12-25T20:07:18.895Z,1.91
2022-12-25T20:09:47.255Z,1.91
2022-12-25T20:12:16.625Z,1.92
2022-12-25T20:14:44.420Z,1.93
2022-12-25T20:17:15.823Z,1.94
2022-12-25T20:19:43.737Z,1.96
2022-12-25T20:22:11.051Z,1.99
2022-12-25T20:24:38.152Z,2.04
2022-12-25T20:27:05.298Z,2.06
2022-12-25T20:29:32.319Z,2.08
2022-12-25T20:31:59.410Z,2.11
2022-12-25T20:34:26.373Z,2.15
2022-12-25T20:36:53.330Z,2.20
2022-12-25T20:39:20.519Z,2.22
2022-12-25T20:41:47.863Z,2.23
2022-12-25T20:44:14.980Z,2.24
2022-12-25T20:46:43.095Z,2.22
2022-12-25T20:49:13.215Z,2.22
2022-12-25T20:51:42.256Z,2.23
2022-12-25T20:54:09.989Z,2.22
2022-12-25T20:56:37.282Z,2.19
2022-12-25T20:59:05.710Z,2.20
2022-12-25T21:01:33.174Z,2.20
2022-12-25T21:04:00.337Z,2.21
2022-12-25T21:06:28.678Z,2.21
2022-12-25T21:09:17.291Z,2.18
2022-12-25T21:11:44.821Z,2.18
2022-12-25T21:14:12.174Z,2.18
2022-12-25T21:16:39.400Z,2.20
2022-12-25T21:19:07.324Z,2.22
2022-12-25T21:21:36.199Z,2.22
2022-12-25T21:24:04.249Z,2.21
2022-12-25T21:26:33.326Z,2.18
2022-12-25T21:29:05.522Z,2.20
2022-12-25T21:31:56.333Z,2.20
2022-12-25T21:34:26.180Z,2.20
2022-12-25T21:36:54.427Z,2.20
2022-12-25T21:39:22.496Z,2.19
2022-12-25T21:41:49.616Z,2.20
2022-12-25T21:44:17.913Z,2.18
2022-12-25T21:46:45.874Z,2.19
2022-12-25T21:49:33.256Z,2.19
2022-12-25T21:52:13.077Z,2.21
2022-12-25T21:54:41.583Z,2.23
2022-12-25T21:57:09.661Z,2.22
2022-12-25T21:59:38.906Z,2.22
2022-12-25T22:02:11.646Z,2.23
2022-12-25T22:04:39.430Z,2.25
2022-12-25T22:07:21.620Z,2.26
2022-12-25T22:09:50.163Z,2.30
2022-12-25T22:12:38.329Z,2.30
2022-12-25T22:15:07.738Z,2.29
2022-12-25T22:18:00.874Z,2.29
2022-12-25T22:20:36.472Z,2.32
2022-12-25T22:23:04.320Z,2.33
2022-12-25T22:25:31.334Z,2.32
2022-12-25T22:27:58.437Z,2.31
2022-12-25T22:30:29.920Z,2.31
2022-12-25T22:32:57.300Z,2.34
2022-12-25T22:35:24.911Z,2.35
2022-12-25T22:37:53.495Z,2.35
2022-12-25T22:40:20.567Z,2.36
2022-12-25T22:42:47.625Z,2.38
2022-12-25T22:45:15.221Z,2.38
2022-12-25T22:47:42.441Z,2.38
2022-12-25T22:50:11.068Z,2.41
2022-12-25T22:52:38.374Z,2.42
2022-12-25T22:55:07.813Z,2.41
2022-12-25T22:57:35.582Z,2.46
2022-12-25T23:00:03.003Z,2.48
2022-12-25T23:02:30.046Z,2.49
2022-12-25T23:04:57.153Z,2.51
2022-12-25T23:07:24.013Z,2.49
2022-12-25T23:09:52.105Z,2.51
2022-12-25T23:12:37.356Z,2.51
2022-12-25T23:15:04.785Z,2.55
2022-12-25T23:17:50.385Z,2.55
2022-12-25T23:20:36.108Z,2.57
2022-12-25T23:23:22.027Z,2.58
2022-12-25T23:26:07.517Z,2.59
2022-12-25T23:28:57.717Z,2.62
2022-12-25T23:31:29.502Z,2.61
2022-12-25T23:33:56.473Z,2.67
2022-12-25T23:36:23.783Z,2.68
2022-12-25T23:38:50.684Z,2.66
2022-12-25T23:41:17.639Z,2.66
2022-12-25T23:43:44.503Z,2.66
2022-12-25T23:46:11.474Z,2.66
2022-12-25T23:48:38.499Z,2.63
2022-12-25T23:51:06.239Z,2.66
2022-12-25T23:53:34.018Z,2.67
2022-12-25T23:56:01.131Z,2.69
2022-12-25T23:58:28.825Z,2.70
